sensor_id;sensor_type;location;lat;lon;timestamp;temperature;humidity
13203;DHT22;6666;51.626;7.530;2022-09-02T00:00:40;16.00;94.90
13203;DHT22;6666;51.626;7.530;2022-09-02T00:03:09;16.00;95.20
13203;DHT22;6666;51.626;7.530;2022-09-02T00:05:38;16.00;95.20
13203;DHT22;6666;51.626;7.530;2022-09-02T00:08:06;16.00;95.20
13203;DHT22;6666;51.626;7.530;2022-09-02T00:10:37;16.00;95.30
13203;DHT22;6666;51.626;7.530;2022-09-02T00:13:08;16.00;95.30
13203;DHT22;6666;51.626;7.530;2022-09-02T00:15:36;15.90;95.20
13203;DHT22;6666;51.626;7.530;2022-09-02T00:18:05;15.90;95.20
13203;DHT22;6666;51.626;7.530;2022-09-02T00:20:43;16.00;95.30
13203;DHT22;6666;51.626;7.530;2022-09-02T00:23:12;15.90;95.30
13203;DHT22;6666;51.626;7.530;2022-09-02T00:25:43;15.90;95.30
13203;DHT22;6666;51.626;7.530;2022-09-02T00:28:12;15.90;95.40
13203;DHT22;6666;51.626;7.530;2022-09-02T00:30:42;15.80;95.30
13203;DHT22;6666;51.626;7.530;2022-09-02T00:33:11;15.80;95.40
13203;DHT22;6666;51.626;7.530;2022-09-02T00:35:40;15.80;95.50
13203;DHT22;6666;51.626;7.530;2022-09-02T00:38:09;15.80;95.50
13203;DHT22;6666;51.626;7.530;2022-09-02T00:40:41;15.80;95.70
13203;DHT22;6666;51.626;7.530;2022-09-02T00:43:10;15.70;95.70
13203;DHT22;6666;51.626;7.530;2022-09-02T00:45:39;15.70;95.90
13203;DHT22;6666;51.626;7.530;2022-09-02T00:48:07;15.70;95.90
13203;DHT22;6666;51.626;7.530;2022-09-02T00:50:36;15.70;96.10
13203;DHT22;6666;51.626;7.530;2022-09-02T00:53:08;15.70;96.20
13203;DHT22;6666;51.626;7.530;2022-09-02T00:55:40;15.60;96.30
13203;DHT22;6666;51.626;7.530;2022-09-02T00:58:16;15.60;96.30
13203;DHT22;6666;51.626;7.530;2022-09-02T01:00:48;15.60;96.40
13203;DHT22;6666;51.626;7.530;2022-09-02T01:03:20;15.60;96.60
13203;DHT22;6666;51.626;7.530;2022-09-02T01:05:50;15.60;96.60
13203;DHT22;6666;51.626;7.530;2022-09-02T01:08:22;15.50;96.80
13203;DHT22;6666;51.626;7.530;2022-09-02T01:10:52;15.50;96.80
13203;DHT22;6666;51.626;7.530;2022-09-02T01:13:25;15.50;96.80
13203;DHT22;6666;51.626;7.530;2022-09-02T01:15:57;15.50;96.90
13203;DHT22;6666;51.626;7.530;2022-09-02T01:18:29;15.50;96.90
13203;DHT22;6666;51.626;7.530;2022-09-02T01:20:59;15.50;97.00
13203;DHT22;6666;51.626;7.530;2022-09-02T01:23:29;15.50;97.00
13203;DHT22;6666;51.626;7.530;2022-09-02T01:26:01;15.50;97.00
13203;DHT22;6666;51.626;7.530;2022-09-02T01:28:29;15.50;97.10
13203;DHT22;6666;51.626;7.530;2022-09-02T01:30:59;15.50;97.00
13203;DHT22;6666;51.626;7.530;2022-09-02T01:33:29;15.50;97.00
13203;DHT22;6666;51.626;7.530;2022-09-02T01:35:58;15.50;97.20
13203;DHT22;6666;51.626;7.530;2022-09-02T01:38:30;15.40;97.20
13203;DHT22;6666;51.626;7.530;2022-09-02T01:40:59;15.40;97.30
13203;DHT22;6666;51.626;7.530;2022-09-02T01:43:27;15.40;97.40
13203;DHT22;6666;51.626;7.530;2022-09-02T01:45:57;15.40;97.30
13203;DHT22;6666;51.626;7.530;2022-09-02T01:48:29;15.30;97.30
13203;DHT22;6666;51.626;7.530;2022-09-02T01:51:00;15.40;97.40
13203;DHT22;6666;51.626;7.530;2022-09-02T01:53:30;15.40;97.50
13203;DHT22;6666;51.626;7.530;2022-09-02T01:55:59;15.30;97.40
13203;DHT22;6666;51.626;7.530;2022-09-02T01:58:32;15.40;97.30
13203;DHT22;6666;51.626;7.530;2022-09-02T02:01:00;15.40;97.40
13203;DHT22;6666;51.626;7.530;2022-09-02T02:03:29;15.30;97.50
13203;DHT22;6666;51.626;7.530;2022-09-02T02:05:58;15.40;97.60
13203;DHT22;6666;51.626;7.530;2022-09-02T02:08:29;15.40;97.50
13203;DHT22;6666;51.626;7.530;2022-09-02T02:10:58;15.30;97.60
13203;DHT22;6666;51.626;7.530;2022-09-02T02:13:29;15.40;97.80
13203;DHT22;6666;51.626;7.530;2022-09-02T02:15:58;15.30;97.80
13203;DHT22;6666;51.626;7.530;2022-09-02T02:18:26;15.30;97.80
13203;DHT22;6666;51.626;7.530;2022-09-02T02:20:55;15.30;97.60
13203;DHT22;6666;51.626;7.530;2022-09-02T02:23:24;15.30;98.30
13203;DHT22;6666;51.626;7.530;2022-09-02T02:25:53;15.20;98.00
13203;DHT22;6666;51.626;7.530;2022-09-02T02:28:22;15.20;97.90
13203;DHT22;6666;51.626;7.530;2022-09-02T02:30:51;15.20;98.00
13203;DHT22;6666;51.626;7.530;2022-09-02T02:33:20;15.30;98.10
13203;DHT22;6666;51.626;7.530;2022-09-02T02:35:56;15.20;97.70
13203;DHT22;6666;51.626;7.530;2022-09-02T02:38:25;15.20;97.90
13203;DHT22;6666;51.626;7.530;2022-09-02T02:40:56;15.30;98.10
13203;DHT22;6666;51.626;7.530;2022-09-02T02:43:25;15.20;97.90
13203;DHT22;6666;51.626;7.530;2022-09-02T02:45:53;15.20;97.90
13203;DHT22;6666;51.626;7.530;2022-09-02T02:48:22;15.20;98.00
13203;DHT22;6666;51.626;7.530;2022-09-02T02:50:50;15.20;98.00
13203;DHT22;6666;51.626;7.530;2022-09-02T02:53:19;15.20;98.20
13203;DHT22;6666;51.626;7.530;2022-09-02T02:55:47;15.20;98.20
13203;DHT22;6666;51.626;7.530;2022-09-02T02:58:18;15.20;98.10
13203;DHT22;6666;51.626;7.530;2022-09-02T03:00:47;15.10;99.10
13203;DHT22;6666;51.626;7.530;2022-09-02T03:03:19;15.00;98.40
13203;DHT22;6666;51.626;7.530;2022-09-02T03:05:52;15.10;98.30
13203;DHT22;6666;51.626;7.530;2022-09-02T03:08:21;15.20;98.40
13203;DHT22;6666;51.626;7.530;2022-09-02T03:10:52;15.20;98.30
13203;DHT22;6666;51.626;7.530;2022-09-02T03:13:26;15.20;98.20
13203;DHT22;6666;51.626;7.530;2022-09-02T03:15:59;15.10;98.10
13203;DHT22;6666;51.626;7.530;2022-09-02T03:18:28;15.20;98.10
13203;DHT22;6666;51.626;7.530;2022-09-02T03:20:57;15.10;98.50
13203;DHT22;6666;51.626;7.530;2022-09-02T03:23:26;15.10;98.30
13203;DHT22;6666;51.626;7.530;2022-09-02T03:25:54;15.10;98.50
13203;DHT22;6666;51.626;7.530;2022-09-02T03:28:32;15.10;98.30
13203;DHT22;6666;51.626;7.530;2022-09-02T03:31:02;15.10;98.20
13203;DHT22;6666;51.626;7.530;2022-09-02T03:33:31;15.10;98.60
13203;DHT22;6666;51.626;7.530;2022-09-02T03:36:00;15.10;98.30
13203;DHT22;6666;51.626;7.530;2022-09-02T03:38:28;15.10;98.20
13203;DHT22;6666;51.626;7.530;2022-09-02T03:40:56;15.10;98.50
13203;DHT22;6666;51.626;7.530;2022-09-02T03:43:25;15.10;98.30
13203;DHT22;6666;51.626;7.530;2022-09-02T03:45:55;15.10;98.60
13203;DHT22;6666;51.626;7.530;2022-09-02T03:48:23;15.10;98.40
13203;DHT22;6666;51.626;7.530;2022-09-02T03:50:52;15.10;98.40
13203;DHT22;6666;51.626;7.530;2022-09-02T03:53:20;15.20;98.50
13203;DHT22;6666;51.626;7.530;2022-09-02T03:55:54;15.10;98.30
13203;DHT22;6666;51.626;7.530;2022-09-02T03:58:25;15.20;98.20
13203;DHT22;6666;51.626;7.530;2022-09-02T04:00:57;15.20;98.10
13203;DHT22;6666;51.626;7.530;2022-09-02T04:03:26;15.30;98.10
13203;DHT22;6666;51.626;7.530;2022-09-02T04:05:54;15.20;98.20
13203;DHT22;6666;51.626;7.530;2022-09-02T04:08:25;15.20;98.70
13203;DHT22;6666;51.626;7.530;2022-09-02T04:10:57;15.20;98.10
13203;DHT22;6666;51.626;7.530;2022-09-02T04:13:26;15.20;98.30
13203;DHT22;6666;51.626;7.530;2022-09-02T04:15:54;15.20;98.40
13203;DHT22;6666;51.626;7.530;2022-09-02T04:18:29;15.20;98.40
13203;DHT22;6666;51.626;7.530;2022-09-02T04:20:58;15.20;98.30
13203;DHT22;6666;51.626;7.530;2022-09-02T04:23:27;15.20;98.40
13203;DHT22;6666;51.626;7.530;2022-09-02T04:25:56;15.20;98.60
13203;DHT22;6666;51.626;7.530;2022-09-02T04:28:24;15.20;98.80
13203;DHT22;6666;51.626;7.530;2022-09-02T04:30:53;15.20;98.40
13203;DHT22;6666;51.626;7.530;2022-09-02T04:33:21;15.20;98.30
13203;DHT22;6666;51.626;7.530;2022-09-02T04:35:51;15.20;98.30
13203;DHT22;6666;51.626;7.530;2022-09-02T04:38:20;15.20;98.60
13203;DHT22;6666;51.626;7.530;2022-09-02T04:40:49;15.20;98.50
13203;DHT22;6666;51.626;7.530;2022-09-02T04:43:18;15.10;98.60
13203;DHT22;6666;51.626;7.530;2022-09-02T04:45:47;15.20;98.50
13203;DHT22;6666;51.626;7.530;2022-09-02T04:48:18;15.20;98.90
13203;DHT22;6666;51.626;7.530;2022-09-02T04:50:47;15.20;98.50
13203;DHT22;6666;51.626;7.530;2022-09-02T04:53:18;15.10;98.60
13203;DHT22;6666;51.626;7.530;2022-09-02T04:55:46;15.20;99.00
13203;DHT22;6666;51.626;7.530;2022-09-02T04:58:15;15.20;98.60
13203;DHT22;6666;51.626;7.530;2022-09-02T05:00:46;15.20;98.70
13203;DHT22;6666;51.626;7.530;2022-09-02T05:03:16;15.20;98.40
13203;DHT22;6666;51.626;7.530;2022-09-02T05:05:46;15.20;98.50
13203;DHT22;6666;51.626;7.530;2022-09-02T05:08:15;15.30;98.60
13203;DHT22;6666;51.626;7.530;2022-09-02T05:10:50;15.30;98.80
13203;DHT22;6666;51.626;7.530;2022-09-02T05:13:20;15.30;98.80
13203;DHT22;6666;51.626;7.530;2022-09-02T05:15:51;15.30;98.90
13203;DHT22;6666;51.626;7.530;2022-09-02T05:18:21;15.30;98.90
13203;DHT22;6666;51.626;7.530;2022-09-02T05:20:50;15.40;98.90
13203;DHT22;6666;51.626;7.530;2022-09-02T05:23:18;15.40;98.60
13203;DHT22;6666;51.626;7.530;2022-09-02T05:25:47;15.50;98.70
13203;DHT22;6666;51.626;7.530;2022-09-02T05:28:18;15.50;98.70
13203;DHT22;6666;51.626;7.530;2022-09-02T05:30:46;15.50;98.80
13203;DHT22;6666;51.626;7.530;2022-09-02T05:33:15;15.50;99.00
13203;DHT22;6666;51.626;7.530;2022-09-02T05:35:47;15.50;98.90
13203;DHT22;6666;51.626;7.530;2022-09-02T05:38:19;15.50;98.80
13203;DHT22;6666;51.626;7.530;2022-09-02T05:40:47;15.60;98.90
13203;DHT22;6666;51.626;7.530;2022-09-02T05:43:18;15.50;98.70
13203;DHT22;6666;51.626;7.530;2022-09-02T05:45:47;15.60;98.80
13203;DHT22;6666;51.626;7.530;2022-09-02T05:48:17;15.60;99.20
13203;DHT22;6666;51.626;7.530;2022-09-02T05:51:05;15.60;99.10
13203;DHT22;6666;51.626;7.530;2022-09-02T05:53:34;15.70;99.30
13203;DHT22;6666;51.626;7.530;2022-09-02T05:56:04;15.70;99.30
13203;DHT22;6666;51.626;7.530;2022-09-02T05:58:35;15.70;99.30
13203;DHT22;6666;51.626;7.530;2022-09-02T06:01:07;15.70;99.30
13203;DHT22;6666;51.626;7.530;2022-09-02T06:03:35;15.80;99.20
13203;DHT22;6666;51.626;7.530;2022-09-02T06:06:06;15.70;99.10
13203;DHT22;6666;51.626;7.530;2022-09-02T06:08:37;15.80;99.30
13203;DHT22;6666;51.626;7.530;2022-09-02T06:11:09;15.80;99.40
13203;DHT22;6666;51.626;7.530;2022-09-02T06:13:41;15.80;99.50
13203;DHT22;6666;51.626;7.530;2022-09-02T06:16:12;15.90;99.50
13203;DHT22;6666;51.626;7.530;2022-09-02T06:18:42;15.90;99.60
13203;DHT22;6666;51.626;7.530;2022-09-02T06:21:11;16.00;99.60
13203;DHT22;6666;51.626;7.530;2022-09-02T06:23:42;16.00;99.40
13203;DHT22;6666;51.626;7.530;2022-09-02T06:26:13;16.00;99.90
13203;DHT22;6666;51.626;7.530;2022-09-02T06:28:44;16.10;99.40
13203;DHT22;6666;51.626;7.530;2022-09-02T06:31:17;16.20;99.90
13203;DHT22;6666;51.626;7.530;2022-09-02T06:33:47;16.20;99.90
13203;DHT22;6666;51.626;7.530;2022-09-02T06:36:20;16.40;99.70
13203;DHT22;6666;51.626;7.530;2022-09-02T06:38:57;16.50;99.30
13203;DHT22;6666;51.626;7.530;2022-09-02T06:41:28;16.50;99.50
13203;DHT22;6666;51.626;7.530;2022-09-02T06:44:03;16.50;99.60
13203;DHT22;6666;51.626;7.530;2022-09-02T06:46:39;16.50;99.60
13203;DHT22;6666;51.626;7.530;2022-09-02T06:49:12;16.60;99.80
13203;DHT22;6666;51.626;7.530;2022-09-02T06:51:46;16.70;99.40
13203;DHT22;6666;51.626;7.530;2022-09-02T06:54:17;16.70;99.20
13203;DHT22;6666;51.626;7.530;2022-09-02T06:56:51;16.70;99.00
13203;DHT22;6666;51.626;7.530;2022-09-02T06:59:24;16.80;99.20
13203;DHT22;6666;51.626;7.530;2022-09-02T07:01:56;16.90;99.00
13203;DHT22;6666;51.626;7.530;2022-09-02T07:04:26;17.00;99.20
13203;DHT22;6666;51.626;7.530;2022-09-02T07:07:15;17.00;99.20
13203;DHT22;6666;51.626;7.530;2022-09-02T07:09:59;17.10;99.30
13203;DHT22;6666;51.626;7.530;2022-09-02T07:12:28;17.30;99.80
13203;DHT22;6666;51.626;7.530;2022-09-02T07:15:03;17.50;99.10
13203;DHT22;6666;51.626;7.530;2022-09-02T07:17:37;17.70;98.90
13203;DHT22;6666;51.626;7.530;2022-09-02T07:20:12;17.90;98.20
13203;DHT22;6666;51.626;7.530;2022-09-02T07:22:45;18.30;98.30
13203;DHT22;6666;51.626;7.530;2022-09-02T07:25:17;18.40;98.40
13203;DHT22;6666;51.626;7.530;2022-09-02T07:27:48;18.70;98.30
13203;DHT22;6666;51.626;7.530;2022-09-02T07:30:19;18.90;98.40
13203;DHT22;6666;51.626;7.530;2022-09-02T07:32:53;18.80;97.50
13203;DHT22;6666;51.626;7.530;2022-09-02T07:35:24;18.90;97.80
13203;DHT22;6666;51.626;7.530;2022-09-02T07:37:53;18.60;97.20
13203;DHT22;6666;51.626;7.530;2022-09-02T07:40:21;18.50;97.10
13203;DHT22;6666;51.626;7.530;2022-09-02T07:42:51;18.50;97.80
13203;DHT22;6666;51.626;7.530;2022-09-02T07:45:22;18.60;98.50
13203;DHT22;6666;51.626;7.530;2022-09-02T07:47:52;18.70;98.00
13203;DHT22;6666;51.626;7.530;2022-09-02T07:50:23;18.50;98.10
13203;DHT22;6666;51.626;7.530;2022-09-02T07:52:53;18.60;98.00
13203;DHT22;6666;51.626;7.530;2022-09-02T07:55:23;18.60;97.90
13203;DHT22;6666;51.626;7.530;2022-09-02T07:57:52;18.80;98.20
13203;DHT22;6666;51.626;7.530;2022-09-02T08:00:24;18.80;97.70
13203;DHT22;6666;51.626;7.530;2022-09-02T08:02:59;18.80;97.20
13203;DHT22;6666;51.626;7.530;2022-09-02T08:05:34;18.70;97.20
13203;DHT22;6666;51.626;7.530;2022-09-02T08:08:03;18.90;97.10
13203;DHT22;6666;51.626;7.530;2022-09-02T08:10:33;18.90;97.10
13203;DHT22;6666;51.626;7.530;2022-09-02T08:13:02;19.00;97.20
13203;DHT22;6666;51.626;7.530;2022-09-02T08:15:34;19.00;97.70
13203;DHT22;6666;51.626;7.530;2022-09-02T08:18:04;19.30;98.10
13203;DHT22;6666;51.626;7.530;2022-09-02T08:20:34;19.60;98.40
13203;DHT22;6666;51.626;7.530;2022-09-02T08:23:05;19.60;97.30
13203;DHT22;6666;51.626;7.530;2022-09-02T08:25:54;19.70;96.60
13203;DHT22;6666;51.626;7.530;2022-09-02T08:28:22;19.60;96.30
13203;DHT22;6666;51.626;7.530;2022-09-02T08:30:52;19.50;96.30
13203;DHT22;6666;51.626;7.530;2022-09-02T08:33:24;19.40;96.60
13203;DHT22;6666;51.626;7.530;2022-09-02T08:35:53;19.50;97.10
13203;DHT22;6666;51.626;7.530;2022-09-02T08:38:21;19.40;96.50
13203;DHT22;6666;51.626;7.530;2022-09-02T08:40:50;19.30;96.40
13203;DHT22;6666;51.626;7.530;2022-09-02T08:43:27;19.40;96.60
13203;DHT22;6666;51.626;7.530;2022-09-02T08:46:01;19.40;96.70
13203;DHT22;6666;51.626;7.530;2022-09-02T08:48:35;19.80;97.00
13203;DHT22;6666;51.626;7.530;2022-09-02T08:51:08;19.90;96.90
13203;DHT22;6666;51.626;7.530;2022-09-02T08:53:45;19.90;97.80
13203;DHT22;6666;51.626;7.530;2022-09-02T08:56:17;20.00;96.80
13203;DHT22;6666;51.626;7.530;2022-09-02T08:58:50;20.10;96.80
13203;DHT22;6666;51.626;7.530;2022-09-02T09:01:32;20.00;96.40
13203;DHT22;6666;51.626;7.530;2022-09-02T09:04:23;20.00;96.70
13203;DHT22;6666;51.626;7.530;2022-09-02T09:07:10;20.00;96.40
13203;DHT22;6666;51.626;7.530;2022-09-02T09:09:53;19.90;97.00
13203;DHT22;6666;51.626;7.530;2022-09-02T09:12:36;19.90;96.90
13203;DHT22;6666;51.626;7.530;2022-09-02T09:15:11;20.00;96.70
13203;DHT22;6666;51.626;7.530;2022-09-02T09:17:45;20.20;96.70
13203;DHT22;6666;51.626;7.530;2022-09-02T09:20:17;20.30;97.20
13203;DHT22;6666;51.626;7.530;2022-09-02T09:22:48;20.40;96.60
13203;DHT22;6666;51.626;7.530;2022-09-02T09:25:18;20.60;96.70
13203;DHT22;6666;51.626;7.530;2022-09-02T09:27:46;20.60;96.20
13203;DHT22;6666;51.626;7.530;2022-09-02T09:30:14;20.60;95.90
13203;DHT22;6666;51.626;7.530;2022-09-02T09:32:46;20.80;96.20
13203;DHT22;6666;51.626;7.530;2022-09-02T09:35:24;21.10;96.10
13203;DHT22;6666;51.626;7.530;2022-09-02T09:37:53;21.30;94.90
13203;DHT22;6666;51.626;7.530;2022-09-02T09:40:27;21.30;94.70
13203;DHT22;6666;51.626;7.530;2022-09-02T09:42:58;21.40;95.10
13203;DHT22;6666;51.626;7.530;2022-09-02T09:45:42;21.50;94.80
13203;DHT22;6666;51.626;7.530;2022-09-02T09:48:19;21.60;95.40
13203;DHT22;6666;51.626;7.530;2022-09-02T09:51:13;21.50;95.10
13203;DHT22;6666;51.626;7.530;2022-09-02T09:53:45;21.60;95.50
13203;DHT22;6666;51.626;7.530;2022-09-02T09:56:28;21.60;94.90
13203;DHT22;6666;51.626;7.530;2022-09-02T09:59:06;21.40;94.70
13203;DHT22;6666;51.626;7.530;2022-09-02T10:01:35;21.40;95.20
13203;DHT22;6666;51.626;7.530;2022-09-02T10:04:09;21.20;94.70
13203;DHT22;6666;51.626;7.530;2022-09-02T10:06:58;21.10;94.60
13203;DHT22;6666;51.626;7.530;2022-09-02T10:09:31;21.30;95.90
13203;DHT22;6666;51.626;7.530;2022-09-02T10:12:02;21.40;95.20
13203;DHT22;6666;51.626;7.530;2022-09-02T10:14:33;21.60;94.80
13203;DHT22;6666;51.626;7.530;2022-09-02T10:17:23;21.60;94.40
13203;DHT22;6666;51.626;7.530;2022-09-02T10:20:00;21.70;94.50
13203;DHT22;6666;51.626;7.530;2022-09-02T10:22:52;21.60;93.90
13203;DHT22;6666;51.626;7.530;2022-09-02T10:25:33;21.80;94.60
13203;DHT22;6666;51.626;7.530;2022-09-02T10:28:11;21.70;94.50
13203;DHT22;6666;51.626;7.530;2022-09-02T10:30:52;21.80;94.20
13203;DHT22;6666;51.626;7.530;2022-09-02T10:33:35;22.00;94.70
13203;DHT22;6666;51.626;7.530;2022-09-02T10:36:10;22.30;95.10
13203;DHT22;6666;51.626;7.530;2022-09-02T10:38:49;22.30;94.00
13203;DHT22;6666;51.626;7.530;2022-09-02T10:41:36;22.50;94.30
13203;DHT22;6666;51.626;7.530;2022-09-02T10:44:22;22.40;93.80
13203;DHT22;6666;51.626;7.530;2022-09-02T10:46:58;22.30;93.50
13203;DHT22;6666;51.626;7.530;2022-09-02T10:50:00;22.20;92.70
13203;DHT22;6666;51.626;7.530;2022-09-02T10:52:43;22.30;93.90
13203;DHT22;6666;51.626;7.530;2022-09-02T10:55:20;22.40;92.70
13203;DHT22;6666;51.626;7.530;2022-09-02T10:57:58;22.40;94.30
13203;DHT22;6666;51.626;7.530;2022-09-02T11:00:28;22.50;92.60
13203;DHT22;6666;51.626;7.530;2022-09-02T11:03:06;22.30;92.40
13203;DHT22;6666;51.626;7.530;2022-09-02T11:05:43;22.20;92.40
13203;DHT22;6666;51.626;7.530;2022-09-02T11:08:19;22.10;93.40
13203;DHT22;6666;51.626;7.530;2022-09-02T11:11:03;22.00;93.30
13203;DHT22;6666;51.626;7.530;2022-09-02T11:13:38;22.30;93.10
13203;DHT22;6666;51.626;7.530;2022-09-02T11:16:15;22.60;92.20
13203;DHT22;6666;51.626;7.530;2022-09-02T11:18:51;22.80;91.90
13203;DHT22;6666;51.626;7.530;2022-09-02T11:21:33;23.10;91.90
13203;DHT22;6666;51.626;7.530;2022-09-02T11:24:07;23.00;90.90
13203;DHT22;6666;51.626;7.530;2022-09-02T11:26:40;23.10;92.20
13203;DHT22;6666;51.626;7.530;2022-09-02T11:29:13;23.30;91.20
13203;DHT22;6666;51.626;7.530;2022-09-02T11:31:47;23.40;90.30
13203;DHT22;6666;51.626;7.530;2022-09-02T11:34:35;23.50;89.80
13203;DHT22;6666;51.626;7.530;2022-09-02T11:37:07;23.50;90.00
13203;DHT22;6666;51.626;7.530;2022-09-02T11:39:41;23.50;89.80
13203;DHT22;6666;51.626;7.530;2022-09-02T11:42:49;23.50;88.50
13203;DHT22;6666;51.626;7.530;2022-09-02T11:45:32;23.50;87.70
13203;DHT22;6666;51.626;7.530;2022-09-02T11:51:30;23.50;86.90
13203;DHT22;6666;51.626;7.530;2022-09-02T11:54:01;23.50;86.30
13203;DHT22;6666;51.626;7.530;2022-09-02T11:56:37;23.50;83.90
13203;DHT22;6666;51.626;7.530;2022-09-02T11:59:19;23.50;80.90
13203;DHT22;6666;51.626;7.530;2022-09-02T12:01:51;23.60;83.20
13203;DHT22;6666;51.626;7.530;2022-09-02T12:04:23;23.70;80.00
13203;DHT22;6666;51.626;7.530;2022-09-02T12:07:23;24.00;80.50
13203;DHT22;6666;51.626;7.530;2022-09-02T12:09:55;24.00;75.90
13203;DHT22;6666;51.626;7.530;2022-09-02T12:13:03;24.20;76.00
13203;DHT22;6666;51.626;7.530;2022-09-02T12:15:35;24.30;77.10
13203;DHT22;6666;51.626;7.530;2022-09-02T12:18:13;24.30;76.10
13203;DHT22;6666;51.626;7.530;2022-09-02T12:21:06;24.10;70.30
13203;DHT22;6666;51.626;7.530;2022-09-02T12:24:19;24.20;72.00
13203;DHT22;6666;51.626;7.530;2022-09-02T12:27:25;24.50;71.50
13203;DHT22;6666;51.626;7.530;2022-09-02T12:29:56;24.90;77.40
13203;DHT22;6666;51.626;7.530;2022-09-02T12:35:53;25.00;70.60
13203;DHT22;6666;51.626;7.530;2022-09-02T12:38:34;24.90;68.30
13203;DHT22;6666;51.626;7.530;2022-09-02T12:41:30;24.70;75.00
13203;DHT22;6666;51.626;7.530;2022-09-02T12:44:17;24.60;70.40
13203;DHT22;6666;51.626;7.530;2022-09-02T12:47:00;24.70;66.90
13203;DHT22;6666;51.626;7.530;2022-09-02T12:49:40;24.60;66.20
13203;DHT22;6666;51.626;7.530;2022-09-02T12:52:11;24.30;66.40
13203;DHT22;6666;51.626;7.530;2022-09-02T12:55:02;24.20;67.60
13203;DHT22;6666;51.626;7.530;2022-09-02T12:57:38;24.20;68.80
13203;DHT22;6666;51.626;7.530;2022-09-02T13:00:09;24.00;66.90
13203;DHT22;6666;51.626;7.530;2022-09-02T13:02:49;24.00;67.20
13203;DHT22;6666;51.626;7.530;2022-09-02T13:05:25;23.90;67.70
13203;DHT22;6666;51.626;7.530;2022-09-02T13:08:18;23.90;67.60
13203;DHT22;6666;51.626;7.530;2022-09-02T13:14:31;24.30;69.60
13203;DHT22;6666;51.626;7.530;2022-09-02T13:17:20;24.40;67.20
13203;DHT22;6666;51.626;7.530;2022-09-02T13:20:31;24.50;66.10
13203;DHT22;6666;51.626;7.530;2022-09-02T13:23:17;24.40;66.20
13203;DHT22;6666;51.626;7.530;2022-09-02T13:26:25;24.40;64.70
13203;DHT22;6666;51.626;7.530;2022-09-02T13:29:53;24.50;66.90
13203;DHT22;6666;51.626;7.530;2022-09-02T13:32:28;24.20;64.80
13203;DHT22;6666;51.626;7.530;2022-09-02T13:35:01;24.00;65.10
13203;DHT22;6666;51.626;7.530;2022-09-02T13:37:32;23.90;65.40
13203;DHT22;6666;51.626;7.530;2022-09-02T13:40:05;23.80;65.20
13203;DHT22;6666;51.626;7.530;2022-09-02T13:42:34;23.90;66.60
13203;DHT22;6666;51.626;7.530;2022-09-02T13:45:14;23.90;66.20
13203;DHT22;6666;51.626;7.530;2022-09-02T13:47:44;24.00;64.40
13203;DHT22;6666;51.626;7.530;2022-09-02T13:50:16;23.90;65.60
13203;DHT22;6666;51.626;7.530;2022-09-02T13:52:48;23.90;65.90
13203;DHT22;6666;51.626;7.530;2022-09-02T13:55:39;23.80;67.80
13203;DHT22;6666;51.626;7.530;2022-09-02T13:58:21;23.90;65.30
13203;DHT22;6666;51.626;7.530;2022-09-02T14:00:49;24.20;64.50
13203;DHT22;6666;51.626;7.530;2022-09-02T14:03:19;24.30;64.40
13203;DHT22;6666;51.626;7.530;2022-09-02T14:05:51;24.40;64.50
13203;DHT22;6666;51.626;7.530;2022-09-02T14:08:22;24.50;65.10
13203;DHT22;6666;51.626;7.530;2022-09-02T14:10:52;24.50;64.50
13203;DHT22;6666;51.626;7.530;2022-09-02T14:13:22;24.50;63.20
13203;DHT22;6666;51.626;7.530;2022-09-02T14:15:50;24.40;63.80
13203;DHT22;6666;51.626;7.530;2022-09-02T14:18:20;24.20;63.60
13203;DHT22;6666;51.626;7.530;2022-09-02T14:20:53;24.00;63.30
13203;DHT22;6666;51.626;7.530;2022-09-02T14:23:25;23.90;64.80
13203;DHT22;6666;51.626;7.530;2022-09-02T14:25:56;23.80;65.00
13203;DHT22;6666;51.626;7.530;2022-09-02T14:28:26;23.70;64.20
13203;DHT22;6666;51.626;7.530;2022-09-02T14:30:58;23.70;64.30
13203;DHT22;6666;51.626;7.530;2022-09-02T14:33:36;23.60;64.90
13203;DHT22;6666;51.626;7.530;2022-09-02T14:36:07;23.60;64.10
13203;DHT22;6666;51.626;7.530;2022-09-02T14:38:49;23.60;64.90
13203;DHT22;6666;51.626;7.530;2022-09-02T14:41:21;23.60;64.70
13203;DHT22;6666;51.626;7.530;2022-09-02T14:43:52;23.90;63.90
13203;DHT22;6666;51.626;7.530;2022-09-02T14:46:26;23.90;65.40
13203;DHT22;6666;51.626;7.530;2022-09-02T14:48:58;23.80;66.10
13203;DHT22;6666;51.626;7.530;2022-09-02T14:51:33;23.70;66.10
13203;DHT22;6666;51.626;7.530;2022-09-02T14:54:05;23.60;64.70
13203;DHT22;6666;51.626;7.530;2022-09-02T14:56:43;23.50;67.80
13203;DHT22;6666;51.626;7.530;2022-09-02T14:59:11;23.40;67.80
13203;DHT22;6666;51.626;7.530;2022-09-02T15:01:40;23.50;68.30
13203;DHT22;6666;51.626;7.530;2022-09-02T15:04:09;23.60;65.90
13203;DHT22;6666;51.626;7.530;2022-09-02T15:06:41;23.60;64.70
13203;DHT22;6666;51.626;7.530;2022-09-02T15:09:10;23.70;64.80
13203;DHT22;6666;51.626;7.530;2022-09-02T15:11:44;23.80;65.40
13203;DHT22;6666;51.626;7.530;2022-09-02T15:14:13;23.80;64.70
13203;DHT22;6666;51.626;7.530;2022-09-02T15:16:41;23.70;65.00
13203;DHT22;6666;51.626;7.530;2022-09-02T15:19:10;23.60;64.20
13203;DHT22;6666;51.626;7.530;2022-09-02T15:21:38;23.60;64.60
13203;DHT22;6666;51.626;7.530;2022-09-02T15:24:06;23.50;64.80
13203;DHT22;6666;51.626;7.530;2022-09-02T15:26:36;23.50;66.90
13203;DHT22;6666;51.626;7.530;2022-09-02T15:29:04;23.60;64.90
13203;DHT22;6666;51.626;7.530;2022-09-02T15:31:33;23.70;65.00
13203;DHT22;6666;51.626;7.530;2022-09-02T15:34:02;23.70;66.30
13203;DHT22;6666;51.626;7.530;2022-09-02T15:36:30;23.80;65.10
13203;DHT22;6666;51.626;7.530;2022-09-02T15:38:59;23.80;64.20
13203;DHT22;6666;51.626;7.530;2022-09-02T15:41:27;23.80;66.00
13203;DHT22;6666;51.626;7.530;2022-09-02T15:43:58;23.80;64.70
13203;DHT22;6666;51.626;7.530;2022-09-02T15:46:28;23.70;66.80
13203;DHT22;6666;51.626;7.530;2022-09-02T15:49:00;23.50;67.30
13203;DHT22;6666;51.626;7.530;2022-09-02T15:51:30;23.50;69.40
13203;DHT22;6666;51.626;7.530;2022-09-02T15:54:00;23.50;67.60
13203;DHT22;6666;51.626;7.530;2022-09-02T15:56:30;23.50;66.30
13203;DHT22;6666;51.626;7.530;2022-09-02T15:59:02;23.50;66.40
13203;DHT22;6666;51.626;7.530;2022-09-02T16:01:32;23.40;69.20
13203;DHT22;6666;51.626;7.530;2022-09-02T16:04:01;23.30;68.40
13203;DHT22;6666;51.626;7.530;2022-09-02T16:06:30;23.40;65.30
13203;DHT22;6666;51.626;7.530;2022-09-02T16:08:59;23.50;65.80
13203;DHT22;6666;51.626;7.530;2022-09-02T16:11:27;23.60;64.60
13203;DHT22;6666;51.626;7.530;2022-09-02T16:13:56;23.70;64.30
13203;DHT22;6666;51.626;7.530;2022-09-02T16:16:25;23.70;64.70
13203;DHT22;6666;51.626;7.530;2022-09-02T16:18:54;23.70;63.50
13203;DHT22;6666;51.626;7.530;2022-09-02T16:21:23;23.70;64.40
13203;DHT22;6666;51.626;7.530;2022-09-02T16:23:51;23.60;63.60
13203;DHT22;6666;51.626;7.530;2022-09-02T16:26:24;23.50;65.10
13203;DHT22;6666;51.626;7.530;2022-09-02T16:28:53;23.50;63.80
13203;DHT22;6666;51.626;7.530;2022-09-02T16:31:25;23.40;65.80
13203;DHT22;6666;51.626;7.530;2022-09-02T16:33:56;23.40;64.70